Pagrindinis puslapis
METAR-TAF:

METAR-TAF

Oro uostai :

Nakashibetsu, Japonija

platuma: 43-34N, ilguma: 144-58E, Aukštis: 66 m

Dabartinis oras

Ataskaita buvo paskelbta 10 minutes, ne 04:00 UTC
Vėjas 9 kt iš Šiaurės/Šiaurės Rytų
Temperatūra -3°C
Drėgmė 93%
Slėgis 1006 hPa
Matomumas: 1400 m
Mažai debesys ne aukštis 300 ft
Su prošvaistėmis ne aukštis 500 ft
Su prošvaistėmis ne aukštis 900 ft
sniegas

METAR: RJCN 200400Z 03009KT 1400 R08/1100V1600U -SHSN FEW003 BKN005 BKN009 M03/M04 Q1006

Laikas: 13:10 (04:10 UTC)


TAF: trūkstamas

Orai ataskaitas ir orų prognozės (METAR, TAF).

turimą stotys yra geltonos ir raudonos taškus žemėlapyje.

Perkelti pele per norėdami pamatyti stoties vardą.

Tada spustelėkite, norėdami matyti oro stebėjimo ir prognozės.

Norėdami pakeisti žemėlapį: spustelėkite ant žalios mygtukų su juodo kryžiaus žemyn,; žalią mygtuką su brūkšneliu, jei norite nutolinti; arba žalių rodyklių gretimoms žemėlapius.


METAR-TAF: